Time;durP1;ratioP1;P1;durP2;ratioP2;P2;SDS_P1;SDS_P2;PMS_P1;PMS_P2;Temp;Humidity;BMP_temperature;BMP_pressure;BME280_temperature;BME280_humidity;BME280_pressure;Samples;Min_cycle;Max_cycle;Signal;HPM_P1;HPM_P2
2023/07/22 00:01:24;;;;;;;7.35;5.95;;;18.00;99.90;;;;;;4179348;28;20121;-60
2023/07/22 00:03:25;;;;;;;7.30;5.55;;;18.00;99.90;;;;;;4170282;28;20044;-59
2023/07/22 00:05:25;;;;;;;6.90;5.38;;;18.00;99.90;;;;;;4177546;28;20036;-59
2023/07/22 00:07:26;;;;;;;8.50;5.88;;;18.00;99.90;;;;;;4156842;28;20113;-59
2023/07/22 00:09:27;;;;;;;6.53;5.35;;;17.90;99.90;;;;;;4178305;28;20087;-59
2023/07/22 00:11:27;;;;;;;8.35;6.15;;;18.00;99.90;;;;;;4166745;28;20018;-59
2023/07/22 00:13:28;;;;;;;8.88;6.13;;;17.90;99.90;;;;;;4162606;28;20075;-60
2023/07/22 00:15:28;;;;;;;9.75;6.32;;;17.90;99.90;;;;;;4169748;28;20037;-59
2023/07/22 00:17:29;;;;;;;8.90;6.13;;;17.90;99.90;;;;;;4181986;28;20033;-59
2023/07/22 00:19:30;;;;;;;8.43;6.28;;;17.90;99.90;;;;;;4193442;28;20029;-59
2023/07/22 00:21:30;;;;;;;8.57;6.13;;;17.90;99.90;;;;;;4178799;28;20094;-59
2023/07/22 00:23:31;;;;;;;10.10;6.75;;;17.80;99.90;;;;;;4178433;28;20059;-59
2023/07/22 00:25:31;;;;;;;8.93;6.20;;;17.80;99.90;;;;;;4177589;28;20029;-60
2023/07/22 00:27:32;;;;;;;8.38;6.13;;;17.80;99.90;;;;;;4175024;28;20104;-60
2023/07/22 00:29:33;;;;;;;8.90;6.20;;;17.80;99.90;;;;;;4179246;28;20492;-59
2023/07/22 00:31:33;;;;;;;8.02;5.75;;;17.80;99.90;;;;;;4176329;28;20025;-60
2023/07/22 00:33:34;;;;;;;9.18;5.95;;;17.80;99.90;;;;;;4178231;28;20108;-60
2023/07/22 00:35:34;;;;;;;7.57;6.07;;;17.80;99.90;;;;;;4173754;28;20044;-59
2023/07/22 00:37:35;;;;;;;8.00;5.50;;;17.80;99.90;;;;;;4173772;28;20029;-62
2023/07/22 00:39:36;;;;;;;7.28;5.35;;;17.80;99.90;;;;;;4174449;28;20032;-61
2023/07/22 00:41:36;;;;;;;8.90;6.53;;;17.80;99.90;;;;;;4170482;28;20489;-60
2023/07/22 00:43:38;;;;;;;9.57;6.07;;;17.80;99.90;;;;;;4170209;28;20033;-60
2023/07/22 00:45:38;;;;;;;12.40;7.20;;;17.80;99.90;;;;;;4154575;28;20021;-59
2023/07/22 00:47:39;;;;;;;8.93;6.00;;;17.70;99.90;;;;;;4184042;28;20031;-60
2023/07/22 00:49:40;;;;;;;8.93;6.50;;;17.70;99.90;;;;;;4195510;28;20491;-59
2023/07/22 00:51:41;;;;;;;12.52;6.30;;;17.70;99.90;;;;;;4181224;28;20071;-59
2023/07/22 00:53:42;;;;;;;8.52;6.95;;;17.70;99.90;;;;;;4176863;28;20029;-59
2023/07/22 00:55:42;;;;;;;10.85;6.53;;;17.70;99.90;;;;;;4161337;28;20045;-59
2023/07/22 00:57:43;;;;;;;9.23;6.85;;;17.70;99.90;;;;;;4176206;28;20040;-59
2023/07/22 00:59:44;;;;;;;9.52;6.60;;;17.70;99.90;;;;;;4176756;28;20122;-59
2023/07/22 01:01:45;;;;;;;9.43;6.55;;;17.70;99.90;;;;;;4173216;28;20029;-59
2023/07/22 01:03:46;;;;;;;8.48;6.15;;;17.70;99.90;;;;;;4180475;28;20081;-60
2023/07/22 01:05:48;;;;;;;8.70;6.32;;;17.60;99.90;;;;;;4173124;28;20036;-60
2023/07/22 01:07:49;;;;;;;8.20;6.03;;;17.70;99.90;;;;;;4180913;28;20111;-59
2023/07/22 01:09:56;;;;;;;8.63;6.60;;;17.60;99.90;;;;;;4178318;28;20068;-59
2023/07/22 01:11:57;;;;;;;8.80;6.78;;;17.60;99.90;;;;;;4176190;28;20029;-59
2023/07/22 01:13:59;;;;;;;10.18;7.45;;;17.60;99.90;;;;;;4176166;28;20043;-60
2023/07/22 01:16:00;;;;;;;9.30;6.40;;;17.60;99.90;;;;;;4178725;28;20041;-60
2023/07/22 01:18:02;;;;;;;10.57;7.32;;;17.60;99.90;;;;;;4172223;28;20044;-60
2023/07/22 01:20:03;;;;;;;9.85;7.15;;;17.60;99.90;;;;;;4165475;28;20041;-59
2023/07/22 01:22:07;;;;;;;9.50;7.03;;;17.60;99.90;;;;;;4166749;28;20040;-59
2023/07/22 01:24:08;;;;;;;8.32;6.15;;;17.60;99.90;;;;;;4176624;28;20045;-60
2023/07/22 01:26:08;;;;;;;9.65;6.75;;;17.50;99.90;;;;;;4171224;28;20464;-64
2023/07/22 01:28:13;;;;;;;9.35;6.72;;;17.50;99.90;;;;;;4179685;28;20025;-60
2023/07/22 01:30:14;;;;;;;9.18;6.95;;;17.60;99.90;;;;;;4176729;28;20021;-60
2023/07/22 01:32:14;;;;;;;10.55;7.00;;;17.50;99.90;;;;;;4171219;28;20033;-59
2023/07/22 01:34:15;;;;;;;8.27;6.20;;;17.50;99.90;;;;;;4173696;28;20029;-59
2023/07/22 01:36:15;;;;;;;11.55;6.97;;;17.50;99.90;;;;;;4174087;28;20029;-60
2023/07/22 01:38:16;;;;;;;8.60;7.05;;;17.50;99.90;;;;;;4171710;28;20357;-59
2023/07/22 01:40:17;;;;;;;9.02;6.47;;;17.50;99.90;;;;;;4177220;28;20040;-60
2023/07/22 01:42:18;;;;;;;10.15;6.88;;;17.40;99.90;;;;;;4182898;28;20024;-61
2023/07/22 01:44:19;;;;;;;9.68;7.32;;;17.50;99.90;;;;;;4168284;28;20033;-60
2023/07/22 01:46:20;;;;;;;10.20;7.03;;;17.40;99.90;;;;;;4169377;28;20128;-60
2023/07/22 01:48:22;;;;;;;9.02;6.97;;;17.40;99.90;;;;;;4177466;28;20111;-60
2023/07/22 01:50:22;;;;;;;9.90;7.43;;;17.40;99.90;;;;;;4172247;28;20033;-60
2023/07/22 01:52:23;;;;;;;13.30;7.80;;;17.40;99.90;;;;;;4164945;28;20045;-59
2023/07/22 01:54:23;;;;;;;10.45;7.60;;;17.40;99.90;;;;;;4172967;28;20385;-60
2023/07/22 01:56:24;;;;;;;10.73;7.50;;;17.40;99.90;;;;;;4180665;28;20050;-60
2023/07/22 01:58:25;;;;;;;9.70;7.30;;;17.40;99.90;;;;;;4192934;28;20028;-60
2023/07/22 02:00:26;;;;;;;7.45;5.80;;;17.40;99.90;;;;;;4179175;28;20037;-59
2023/07/22 02:02:27;;;;;;;8.90;6.63;;;17.30;99.90;;;;;;4156205;28;20049;-60
2023/07/22 02:04:27;;;;;;;8.48;6.72;;;17.30;99.90;;;;;;4177554;28;20029;-60
2023/07/22 02:06:28;;;;;;;8.88;6.32;;;17.30;99.90;;;;;;4167809;28;20166;-59
2023/07/22 02:08:29;;;;;;;9.10;6.72;;;17.30;99.90;;;;;;4177252;28;20037;-59
2023/07/22 02:10:30;;;;;;;10.75;7.68;;;17.30;99.90;;;;;;4168415;28;20578;-59
2023/07/22 02:12:30;;;;;;;10.75;6.93;;;17.30;99.90;;;;;;4165411;28;20049;-59
2023/07/22 02:14:31;;;;;;;8.68;6.53;;;17.30;99.90;;;;;;4167293;28;20079;-60
2023/07/22 02:16:35;;;;;;;10.20;6.90;;;17.30;99.90;;;;;;4166422;28;20045;-59
2023/07/22 02:18:35;;;;;;;9.65;7.57;;;17.30;99.90;;;;;;4154703;28;20038;-59
2023/07/22 02:20:36;;;;;;;9.15;6.57;;;17.30;99.90;;;;;;4167118;28;20043;-60
2023/07/22 02:22:36;;;;;;;7.75;6.32;;;17.20;99.90;;;;;;4168239;28;20087;-60
2023/07/22 02:24:38;;;;;;;9.45;6.65;;;17.20;99.90;;;;;;4169041;28;20039;-59
2023/07/22 02:26:38;;;;;;;10.90;7.13;;;17.20;99.90;;;;;;4168657;28;20029;-60
2023/07/22 02:28:39;;;;;;;8.52;6.72;;;17.20;99.90;;;;;;4168955;28;20075;-59
2023/07/22 02:30:39;;;;;;;9.85;7.18;;;17.20;99.90;;;;;;4168027;28;20140;-59
2023/07/22 02:32:41;;;;;;;11.30;6.25;;;17.30;99.90;;;;;;4166737;28;20091;-65
2023/07/22 02:34:41;;;;;;;7.63;5.65;;;17.30;99.90;;;;;;4166909;28;20044;-61
2023/07/22 02:36:42;;;;;;;8.05;6.03;;;17.30;99.90;;;;;;4169052;28;20033;-60
2023/07/22 02:38:43;;;;;;;8.75;6.80;;;17.30;99.90;;;;;;4169370;28;20048;-59
2023/07/22 02:40:43;;;;;;;9.82;6.75;;;17.30;99.90;;;;;;4166102;28;20035;-59
2023/07/22 02:42:44;;;;;;;8.52;6.30;;;17.30;99.90;;;;;;4168240;28;20090;-59
2023/07/22 02:44:44;;;;;;;8.15;6.38;;;17.30;99.90;;;;;;4168794;28;20527;-59
2023/07/22 02:46:45;;;;;;;10.18;6.97;;;17.30;99.90;;;;;;4171402;28;20127;-59
2023/07/22 02:48:46;;;;;;;10.05;6.43;;;17.30;99.90;;;;;;4174446;28;20042;-59
2023/07/22 02:50:46;;;;;;;9.27;6.93;;;17.30;99.90;;;;;;4168299;28;20503;-59
2023/07/22 02:52:47;;;;;;;8.38;6.55;;;17.30;99.90;;;;;;4173829;28;20029;-60
2023/07/22 02:55:10;;;;;;;9.02;6.45;;;17.30;99.90;;;;;;4176407;28;20029;-59
2023/07/22 02:57:11;;;;;;;7.90;6.38;;;17.30;99.90;;;;;;4175443;28;20044;-60
2023/07/22 02:59:11;;;;;;;7.75;6.40;;;17.30;99.90;;;;;;4176618;28;20117;-61
2023/07/22 03:01:12;;;;;;;9.48;7.07;;;17.30;99.90;;;;;;4171931;28;20453;-60
2023/07/22 03:03:13;;;;;;;8.95;6.55;;;17.30;99.90;;;;;;4175309;28;20386;-60
2023/07/22 03:05:13;;;;;;;8.65;6.63;;;17.30;99.90;;;;;;4180273;28;20044;-60
2023/07/22 03:07:14;;;;;;;10.30;6.93;;;17.20;99.90;;;;;;4183421;28;20036;-60
2023/07/22 03:09:15;;;;;;;8.15;6.00;;;17.20;99.90;;;;;;4178471;28;20104;-59
2023/07/22 03:11:15;;;;;;;10.43;6.70;;;17.20;99.90;;;;;;4174244;28;20472;-60
2023/07/22 03:13:16;;;;;;;9.98;6.97;;;17.20;99.90;;;;;;4167782;28;20427;-59
2023/07/22 03:15:18;;;;;;;8.70;6.72;;;17.20;99.90;;;;;;4165373;28;20041;-59
2023/07/22 03:17:19;;;;;;;7.80;6.43;;;17.20;99.90;;;;;;4146318;28;20192;-59
2023/07/22 03:19:20;;;;;;;8.77;6.03;;;17.10;99.90;;;;;;4169206;28;20037;-59
2023/07/22 03:21:21;;;;;;;9.02;6.70;;;17.10;99.90;;;;;;4163840;28;20037;-59
2023/07/22 03:23:22;;;;;;;8.02;6.18;;;17.10;99.90;;;;;;4173611;28;20438;-59
2023/07/22 03:25:22;;;;;;;8.32;6.38;;;17.00;99.90;;;;;;4178325;28;20068;-59
2023/07/22 03:27:23;;;;;;;9.48;6.43;;;17.00;99.90;;;;;;4179465;28;20067;-59
2023/07/22 03:29:24;;;;;;;9.35;6.50;;;17.10;99.90;;;;;;4174130;28;20037;-59
2023/07/22 03:31:24;;;;;;;9.90;6.30;;;17.10;99.90;;;;;;4157736;28;20039;-59
2023/07/22 03:33:25;;;;;;;8.55;6.10;;;17.10;99.90;;;;;;4169882;28;20373;-61
2023/07/22 03:35:26;;;;;;;10.27;7.10;;;17.00;99.90;;;;;;4166760;28;20037;-62
2023/07/22 03:37:26;;;;;;;8.82;6.53;;;17.10;99.90;;;;;;4179954;28;20039;-62
2023/07/22 03:39:27;;;;;;;10.30;6.50;;;17.10;99.90;;;;;;4190790;28;20032;-62
2023/07/22 03:41:27;;;;;;;10.10;6.85;;;17.00;99.90;;;;;;4191342;28;20078;-62
2023/07/22 03:43:28;;;;;;;9.65;6.38;;;17.10;99.90;;;;;;4179240;28;20033;-62
2023/07/22 03:45:28;;;;;;;9.85;7.25;;;17.00;99.90;;;;;;4169010;28;20053;-61
2023/07/22 03:47:29;;;;;;;9.10;6.28;;;17.00;99.90;;;;;;4183967;28;20023;-62
2023/07/22 03:49:30;;;;;;;13.93;6.47;;;17.00;99.90;;;;;;4190681;28;20037;-62
2023/07/22 03:51:31;;;;;;;7.60;5.75;;;17.00;99.90;;;;;;4176764;28;20028;-61
2023/07/22 03:53:31;;;;;;;8.75;5.97;;;17.00;99.90;;;;;;4175523;28;20029;-61
2023/07/22 03:55:32;;;;;;;9.57;6.05;;;17.00;99.90;;;;;;4178009;28;20361;-61
2023/07/22 03:57:32;;;;;;;7.72;5.65;;;17.00;99.90;;;;;;4170675;28;20033;-61
2023/07/22 03:59:33;;;;;;;7.07;5.50;;;17.10;99.90;;;;;;4169130;28;20057;-61
2023/07/22 04:01:34;;;;;;;8.38;5.90;;;17.10;99.90;;;;;;4166360;28;20049;-61
2023/07/22 04:03:34;;;;;;;8.30;6.55;;;17.10;99.90;;;;;;4170448;28;20108;-61
2023/07/22 04:05:35;;;;;;;10.40;6.65;;;17.10;99.90;;;;;;4174834;28;20087;-62
2023/07/22 04:07:36;;;;;;;10.25;6.00;;;17.20;99.90;;;;;;4174747;28;20025;-61
2023/07/22 04:09:36;;;;;;;6.82;5.07;;;17.20;99.90;;;;;;4168100;28;20025;-61
2023/07/22 04:11:37;;;;;;;8.77;5.75;;;17.20;99.90;;;;;;4167046;28;20164;-61
2023/07/22 04:13:37;;;;;;;9.70;6.25;;;17.20;99.90;;;;;;4178349;28;20028;-61
2023/07/22 04:15:38;;;;;;;9.15;6.03;;;17.20;99.90;;;;;;4180404;28;20025;-61
2023/07/22 04:17:39;;;;;;;7.38;5.55;;;17.20;99.90;;;;;;4190119;28;20025;-61
2023/07/22 04:19:39;;;;;;;8.93;5.65;;;17.30;99.90;;;;;;4193378;28;20029;-61
2023/07/22 04:21:40;;;;;;;8.30;5.72;;;17.30;99.90;;;;;;4175610;28;20035;-61
2023/07/22 04:23:40;;;;;;;6.72;5.40;;;17.30;99.90;;;;;;4179528;28;20044;-61
2023/07/22 04:25:42;;;;;;;7.53;5.75;;;17.30;99.90;;;;;;4175154;28;20037;-61
2023/07/22 04:27:43;;;;;;;8.50;5.97;;;17.30;99.90;;;;;;4180055;28;20041;-61
2023/07/22 04:29:43;;;;;;;7.25;5.80;;;17.30;99.90;;;;;;4174923;28;20032;-61
2023/07/22 04:31:44;;;;;;;7.50;6.05;;;17.30;99.90;;;;;;4165845;28;20037;-63
2023/07/22 04:33:45;;;;;;;9.75;6.65;;;17.30;99.90;;;;;;4171731;28;20484;-62
2023/07/22 04:35:45;;;;;;;10.57;6.72;;;17.30;99.90;;;;;;4168673;28;20570;-61
2023/07/22 04:37:46;;;;;;;8.80;6.28;;;17.30;99.90;;;;;;4170083;28;20401;-61
2023/07/22 04:39:49;;;;;;;8.25;6.40;;;17.20;99.90;;;;;;4169976;28;20384;-61
2023/07/22 04:41:50;;;;;;;8.30;6.13;;;17.20;99.90;;;;;;4164383;28;20034;-61
2023/07/22 04:43:51;;;;;;;9.45;6.18;;;17.20;99.90;;;;;;4165666;28;20022;-64
2023/07/22 04:45:51;;;;;;;9.98;6.13;;;17.10;99.90;;;;;;4169125;28;20041;-61
2023/07/22 04:47:52;;;;;;;9.70;6.50;;;17.10;99.90;;;;;;4169755;28;20514;-62
2023/07/22 04:49:53;;;;;;;10.57;6.57;;;17.10;99.90;;;;;;4166678;28;20392;-62
2023/07/22 04:51:53;;;;;;;10.80;7.38;;;17.00;99.90;;;;;;4165890;28;20099;-61
2023/07/22 04:53:54;;;;;;;9.05;6.18;;;17.00;99.90;;;;;;4165798;28;20033;-62
2023/07/22 04:55:55;;;;;;;8.90;6.47;;;17.00;99.90;;;;;;4165228;28;20037;-62
2023/07/22 04:57:55;;;;;;;8.98;6.10;;;17.00;99.90;;;;;;4169487;28;20033;-62
2023/07/22 04:59:56;;;;;;;9.27;6.22;;;17.00;99.90;;;;;;4168861;28;20026;-61
2023/07/22 05:01:57;;;;;;;9.90;6.32;;;17.00;99.90;;;;;;4166375;28;20029;-61
2023/07/22 05:03:57;;;;;;;11.68;6.90;;;17.00;99.90;;;;;;4164888;28;20030;-61
2023/07/22 05:05:58;;;;;;;10.55;6.55;;;17.00;99.90;;;;;;4166720;28;20041;-61
2023/07/22 05:07:59;;;;;;;8.80;6.30;;;17.00;99.90;;;;;;4167892;28;20025;-61
2023/07/22 05:09:59;;;;;;;8.50;5.68;;;17.00;99.90;;;;;;4165634;28;20075;-61
2023/07/22 05:12:00;;;;;;;9.55;5.97;;;17.00;99.90;;;;;;4164337;28;20049;-62
2023/07/22 05:14:01;;;;;;;6.75;5.88;;;17.00;99.90;;;;;;4170505;28;20422;-62
2023/07/22 05:16:01;;;;;;;7.40;5.90;;;17.00;99.90;;;;;;4168380;28;20612;-62
2023/07/22 05:18:02;;;;;;;9.43;6.45;;;17.00;99.90;;;;;;4169281;28;20045;-62
2023/07/22 05:20:06;;;;;;;8.20;6.20;;;17.00;99.90;;;;;;4166831;28;20030;-61
2023/07/22 05:22:07;;;;;;;8.52;6.13;;;17.00;99.90;;;;;;4165196;28;20935;-61
2023/07/22 05:24:07;;;;;;;8.88;6.10;;;17.00;99.90;;;;;;4166856;28;20037;-61
2023/07/22 05:26:08;;;;;;;9.05;6.53;;;17.00;99.90;;;;;;4165983;28;20033;-61
2023/07/22 05:28:08;;;;;;;8.98;6.07;;;17.10;99.90;;;;;;4165001;28;20392;-61
2023/07/22 05:30:10;;;;;;;10.32;6.72;;;17.10;99.90;;;;;;4160817;28;20045;-62
2023/07/22 05:32:11;;;;;;;9.82;6.78;;;17.10;99.90;;;;;;4154530;28;20041;-61
2023/07/22 05:34:12;;;;;;;7.88;5.72;;;17.10;99.90;;;;;;4157066;28;20034;-61
2023/07/22 05:36:12;;;;;;;8.00;5.93;;;17.10;99.90;;;;;;4165824;28;20056;-62
2023/07/22 05:38:13;;;;;;;7.90;6.05;;;17.10;99.90;;;;;;4169871;28;20112;-61
2023/07/22 05:40:14;;;;;;;9.32;6.60;;;17.20;99.90;;;;;;4166035;28;20033;-62
2023/07/22 05:42:14;;;;;;;10.15;6.57;;;17.20;99.90;;;;;;4167207;28;20029;-61
2023/07/22 05:44:15;;;;;;;9.45;6.68;;;17.30;99.90;;;;;;4164867;28;20044;-64
2023/07/22 05:46:15;;;;;;;11.07;7.18;;;17.30;99.90;;;;;;4164319;28;20685;-62
2023/07/22 05:48:16;;;;;;;10.38;6.78;;;17.30;99.90;;;;;;4171088;28;20170;-61
2023/07/22 05:50:17;;;;;;;10.23;6.80;;;17.40;99.90;;;;;;4162250;28;20040;-61
2023/07/22 05:52:18;;;;;;;13.07;7.57;;;17.40;99.90;;;;;;4164987;28;20080;-62
2023/07/22 05:54:18;;;;;;;9.82;6.72;;;17.40;99.90;;;;;;4173056;28;20393;-63
2023/07/22 05:56:19;;;;;;;10.43;7.15;;;17.40;99.90;;;;;;4175644;28;20045;-62
2023/07/22 05:58:19;;;;;;;9.50;7.15;;;17.50;99.90;;;;;;4167247;28;20576;-62
2023/07/22 06:00:20;;;;;;;8.13;6.15;;;17.50;99.90;;;;;;4167407;28;20473;-62
2023/07/22 06:02:21;;;;;;;8.88;6.43;;;17.50;99.90;;;;;;4172990;28;20431;-62
2023/07/22 06:04:21;;;;;;;10.15;6.40;;;17.50;99.90;;;;;;4165193;28;20119;-62
2023/07/22 06:06:22;;;;;;;9.70;6.32;;;17.60;99.90;;;;;;4179561;28;20044;-61
2023/07/22 06:08:23;;;;;;;11.38;7.32;;;17.70;99.90;;;;;;4182010;28;20112;-63
2023/07/22 06:10:23;;;;;;;12.88;6.95;;;17.80;99.90;;;;;;4166563;28;20513;-63
2023/07/22 06:12:24;;;;;;;8.93;6.60;;;17.90;99.90;;;;;;4161388;28;20480;-62
2023/07/22 06:14:24;;;;;;;10.48;7.25;;;18.20;99.90;;;;;;4184290;28;20036;-62
2023/07/22 06:16:25;;;;;;;10.65;6.85;;;18.50;99.90;;;;;;4169384;28;20041;-62
2023/07/22 06:18:25;;;;;;;8.15;5.75;;;18.80;99.90;;;;;;4177977;28;20032;-62
2023/07/22 06:20:27;;;;;;;9.15;6.93;;;19.20;99.90;;;;;;4160859;28;20623;-62
2023/07/22 06:22:27;;;;;;;9.18;6.15;;;19.50;99.90;;;;;;4168895;28;20395;-62
2023/07/22 06:24:28;;;;;;;10.45;6.95;;;19.80;99.90;;;;;;4170518;28;20036;-62
2023/07/22 06:26:28;;;;;;;9.35;6.32;;;20.10;99.90;;;;;;4153073;28;20037;-63
2023/07/22 06:28:29;;;;;;;11.35;6.53;;;20.30;99.90;;;;;;4151724;28;20029;-63
2023/07/22 06:30:29;;;;;;;9.70;6.97;;;20.70;99.90;;;;;;4161413;28;21027;-62
2023/07/22 06:32:30;;;;;;;8.25;5.95;;;20.90;99.90;;;;;;4165652;28;20026;-62
2023/07/22 06:34:31;;;;;;;6.43;5.13;;;21.10;99.90;;;;;;4170034;28;20039;-63
2023/07/22 06:36:31;;;;;;;8.77;5.65;;;21.30;99.90;;;;;;4166031;28;20150;-63
2023/07/22 06:38:32;;;;;;;7.55;6.13;;;21.60;99.90;;;;;;4154889;28;20037;-63
2023/07/22 06:40:32;;;;;;;9.07;5.82;;;21.80;99.90;;;;;;4153163;28;20113;-63
2023/07/22 06:42:33;;;;;;;8.52;5.82;;;22.10;99.90;;;;;;4156574;28;20030;-63
2023/07/22 06:44:34;;;;;;;6.85;4.95;;;22.20;99.90;;;;;;4160903;28;20121;-63
2023/07/22 06:46:34;;;;;;;8.45;5.85;;;22.40;99.90;;;;;;4167705;28;20034;-63
2023/07/22 06:48:35;;;;;;;9.00;5.47;;;22.40;99.90;;;;;;4165006;28;20040;-63
2023/07/22 06:50:35;;;;;;;9.45;5.78;;;22.60;99.90;;;;;;4176028;28;20033;-63
2023/07/22 06:52:36;;;;;;;8.68;6.28;;;22.70;99.90;;;;;;4168112;28;20104;-63
2023/07/22 06:54:36;;;;;;;8.85;5.82;;;22.70;99.90;;;;;;4173545;28;20043;-63
2023/07/22 06:56:37;;;;;;;7.28;5.55;;;22.60;99.90;;;;;;4170937;28;20545;-63
2023/07/22 06:58:38;;;;;;;5.82;5.00;;;22.70;99.90;;;;;;4176300;28;20040;-63
2023/07/22 07:00:39;;;;;;;7.55;5.88;;;22.70;99.70;;;;;;4169472;28;20399;-63
2023/07/22 07:02:39;;;;;;;10.13;6.30;;;22.80;99.90;;;;;;4176947;28;20031;-63
2023/07/22 07:04:40;;;;;;;8.82;5.93;;;22.70;99.90;;;;;;4175761;28;20514;-63
2023/07/22 07:06:41;;;;;;;7.88;5.50;;;22.60;99.40;;;;;;4151897;28;20042;-64
2023/07/22 07:08:41;;;;;;;8.77;5.93;;;22.60;99.50;;;;;;4175038;28;20126;-63
2023/07/22 07:10:42;;;;;;;9.77;6.03;;;22.40;99.60;;;;;;4170953;28;20033;-63
2023/07/22 07:12:42;;;;;;;7.50;5.75;;;22.40;99.90;;;;;;4175263;28;20025;-63
2023/07/22 07:14:43;;;;;;;7.97;5.97;;;22.50;99.80;;;;;;4165660;28;20045;-63
2023/07/22 07:16:44;;;;;;;7.55;5.95;;;22.40;99.90;;;;;;4165786;28;20484;-63
2023/07/22 07:18:45;;;;;;;8.35;5.78;;;22.30;99.90;;;;;;4168208;28;20113;-63
2023/07/22 07:20:46;;;;;;;10.07;6.28;;;22.30;99.90;;;;;;4166150;28;20060;-63
2023/07/22 07:22:47;;;;;;;12.52;5.72;;;22.20;99.50;;;;;;4172755;28;20370;-65
2023/07/22 07:24:47;;;;;;;9.05;5.95;;;22.20;99.90;;;;;;4152803;28;20112;-63
2023/07/22 07:26:48;;;;;;;9.93;5.95;;;22.20;99.90;;;;;;4151573;28;20089;-64
2023/07/22 07:28:52;;;;;;;9.70;6.00;;;22.20;99.90;;;;;;4162256;28;20116;-64
2023/07/22 07:30:52;;;;;;;11.82;6.45;;;22.10;99.90;;;;;;4154156;28;20064;-63
2023/07/22 07:32:53;;;;;;;11.13;6.22;;;21.90;99.90;;;;;;4162595;28;20432;-63
2023/07/22 07:34:54;;;;;;;6.72;4.72;;;22.00;99.90;;;;;;4159482;28;20055;-67
2023/07/22 07:36:54;;;;;;;9.65;6.07;;;22.00;99.90;;;;;;4173552;28;20401;-64
2023/07/22 07:38:55;;;;;;;9.60;5.68;;;21.90;99.90;;;;;;4172598;28;20032;-64
2023/07/22 07:40:57;;;;;;;11.38;6.22;;;21.70;99.90;;;;;;4175654;28;20096;-64
2023/07/22 07:42:58;;;;;;;;;;;21.70;99.90;;;;;;4179401;28;20040;-63
2023/07/22 07:44:59;;;;;;;10.30;5.75;;;21.70;99.90;;;;;;4176914;28;20299;-63
2023/07/22 07:46:59;;;;;;;8.23;5.78;;;21.70;99.90;;;;;;4172901;28;20033;-63
2023/07/22 07:49:01;;;;;;;7.70;5.68;;;21.70;99.90;;;;;;4179086;28;20040;-63
2023/07/22 07:51:01;;;;;;;9.02;5.88;;;21.70;99.90;;;;;;4172443;28;20025;-63
2023/07/22 07:53:02;;;;;;;8.23;5.15;;;21.70;99.90;;;;;;4164257;28;20401;-63
2023/07/22 07:55:03;;;;;;;7.57;5.15;;;21.70;99.90;;;;;;4166248;28;20037;-63
2023/07/22 07:57:04;;;;;;;9.23;6.30;;;21.70;99.90;;;;;;4171204;28;20072;-63
2023/07/22 07:59:05;;;;;;;7.25;5.30;;;21.70;99.90;;;;;;4172627;28;20496;-63
2023/07/22 08:01:07;;;;;;;8.45;5.25;;;21.70;99.90;;;;;;4174246;28;20029;-63
2023/07/22 08:03:07;;;;;;;5.78;4.57;;;21.70;99.90;;;;;;4179177;28;20035;-63
2023/07/22 08:05:08;;;;;;;7.70;5.43;;;21.80;99.90;;;;;;4176698;28;20391;-66
2023/07/22 08:07:09;;;;;;;7.53;5.10;;;21.70;99.90;;;;;;4171157;28;20353;-63
2023/07/22 08:09:10;;;;;;;10.10;5.05;;;21.80;99.90;;;;;;4147078;28;20480;-63
2023/07/22 08:11:16;;;;;;;7.97;5.60;;;21.70;99.90;;;;;;4148793;28;20477;-63
2023/07/22 08:13:16;;;;;;;9.23;5.70;;;21.80;99.90;;;;;;4153793;28;20031;-63
2023/07/22 08:15:17;;;;;;;6.80;5.05;;;21.80;99.90;;;;;;4154819;28;20113;-63
2023/07/22 08:17:17;;;;;;;8.55;5.53;;;21.70;99.90;;;;;;4159706;28;20041;-63
2023/07/22 08:19:18;;;;;;;6.90;4.95;;;21.70;99.90;;;;;;4158582;28;20116;-63
2023/07/22 08:21:19;;;;;;;7.38;4.82;;;21.80;99.90;;;;;;4151240;28;20496;-63
2023/07/22 08:23:20;;;;;;;6.70;4.63;;;21.90;99.90;;;;;;4161133;28;20060;-63
2023/07/22 08:25:21;;;;;;;11.75;6.07;;;21.90;99.90;;;;;;4155423;28;20434;-63
2023/07/22 08:27:23;;;;;;;8.25;4.85;;;21.90;99.90;;;;;;4160015;28;20060;-63
2023/07/22 08:29:24;;;;;;;7.75;5.18;;;21.80;99.90;;;;;;4160984;28;20038;-63
2023/07/22 08:31:25;;;;;;;12.00;4.78;;;21.90;99.90;;;;;;4156049;28;20029;-66
2023/07/22 08:33:25;;;;;;;5.03;3.70;;;21.90;99.90;;;;;;4156924;28;20396;-64
2023/07/22 08:35:26;;;;;;;5.22;4.22;;;22.00;99.90;;;;;;4158179;28;20048;-64
2023/07/22 08:37:26;;;;;;;10.05;5.53;;;22.00;99.70;;;;;;4153635;28;20037;-64
2023/07/22 08:39:27;;;;;;;6.32;4.35;;;22.00;99.40;;;;;;4153806;28;20044;-64
2023/07/22 08:41:29;;;;;;;9.32;5.25;;;21.90;99.90;;;;;;4147139;28;20041;-66
2023/07/22 08:43:30;;;;;;;7.85;4.82;;;21.90;99.90;;;;;;4147443;28;20046;-63
2023/07/22 08:45:34;;;;;;;8.13;4.22;;;21.90;99.90;;;;;;4172355;28;20037;-63
2023/07/22 08:47:37;;;;;;;7.00;4.13;;;21.90;99.90;;;;;;4176097;28;20159;-63
2023/07/22 08:49:40;;;;;;;6.65;3.67;;;21.90;99.90;;;;;;4176388;28;20400;-63
2023/07/22 08:51:41;;;;;;;8.52;4.80;;;21.80;99.90;;;;;;4175896;28;20075;-63
2023/07/22 08:53:43;;;;;;;7.88;4.10;;;21.80;99.80;;;;;;4163441;28;20038;-62
2023/07/22 08:55:44;;;;;;;7.57;3.80;;;21.70;99.90;;;;;;4168194;28;20083;-63
2023/07/22 08:57:46;;;;;;;5.25;3.78;;;21.60;99.70;;;;;;4173058;28;20037;-63
2023/07/22 08:59:47;;;;;;;5.67;4.03;;;21.60;99.90;;;;;;4168463;28;20038;-63
2023/07/22 09:01:49;;;;;;;5.18;3.83;;;21.70;99.90;;;;;;4165539;28;20036;-63
2023/07/22 09:03:52;;;;;;;6.30;4.38;;;21.70;99.90;;;;;;4146747;28;20033;-63
2023/07/22 09:05:54;;;;;;;5.70;3.67;;;21.60;99.90;;;;;;4169674;28;20408;-63
2023/07/22 09:07:56;;;;;;;5.40;3.60;;;21.70;99.90;;;;;;4176665;28;20064;-63
2023/07/22 09:09:57;;;;;;;4.15;3.00;;;21.70;99.90;;;;;;4176847;28;20353;-64
2023/07/22 09:11:59;;;;;;;6.25;3.88;;;21.80;99.90;;;;;;4155921;28;20025;-63
2023/07/22 09:14:03;;;;;;;9.55;3.60;;;21.90;99.90;;;;;;4157970;28;20108;-63
2023/07/22 09:16:03;;;;;;;6.70;3.65;;;21.90;99.00;;;;;;4161446;28;20561;-63
2023/07/22 09:18:04;;;;;;;8.15;4.53;;;22.00;99.90;;;;;;4169530;28;20037;-63
2023/07/22 09:20:06;;;;;;;3.70;2.80;;;22.10;99.70;;;;;;4177130;28;20036;-64
2023/07/22 09:22:07;;;;;;;5.85;3.42;;;22.20;99.90;;;;;;4175147;28;20037;-63
2023/07/22 09:24:23;;;;;;;6.17;3.80;;;22.20;99.50;;;;;;4178157;28;20518;-63
2023/07/22 09:26:24;;;;;;;4.80;2.97;;;22.20;99.10;;;;;;4171195;28;20351;-63
2023/07/22 09:28:25;;;;;;;4.75;3.00;;;22.30;99.90;;;;;;4173180;28;20060;-63
2023/07/22 09:30:34;;;;;;;7.22;3.38;;;22.20;98.30;;;;;;4174049;28;20063;-63
2023/07/22 09:32:36;;;;;;;6.28;3.20;;;22.20;98.90;;;;;;4151204;28;20030;-63
2023/07/22 09:34:37;;;;;;;8.05;3.53;;;22.10;98.50;;;;;;4169350;28;20037;-62
2023/07/22 09:36:52;;;;;;;5.03;2.83;;;22.20;99.90;;;;;;4162013;28;20042;-63
2023/07/22 09:39:02;;;;;;;5.80;3.00;;;22.30;99.90;;;;;;4168321;28;20184;-63
2023/07/22 09:41:03;;;;;;;5.95;3.22;;;22.30;99.10;;;;;;4161265;28;20045;-63
2023/07/22 09:43:04;;;;;;;5.70;3.35;;;22.30;99.00;;;;;;4167171;28;20033;-63
2023/07/22 09:45:05;;;;;;;5.78;3.35;;;22.40;99.90;;;;;;4166211;28;20083;-63
2023/07/22 09:47:08;;;;;;;5.43;3.30;;;22.40;99.50;;;;;;4150358;28;20037;-63
2023/07/22 09:49:09;;;;;;;;;;;22.50;99.60;;;;;;4158241;28;20043;-64
2023/07/22 09:51:14;;;;;;;6.13;3.60;;;22.40;99.50;;;;;;4158088;28;20006;-63
2023/07/22 09:53:15;;;;;;;4.00;2.90;;;22.40;99.00;;;;;;4167386;28;20037;-63
2023/07/22 09:55:21;;;;;;;7.50;3.50;;;22.30;98.10;;;;;;4168033;28;20539;-62
2023/07/22 09:57:23;;;;;;;5.80;3.55;;;22.40;99.10;;;;;;4153579;28;20033;-63
2023/07/22 09:59:24;;;;;;;5.97;3.03;;;22.40;97.70;;;;;;4160559;28;20033;-63
2023/07/22 10:01:25;;;;;;;5.30;2.85;;;22.50;99.30;;;;;;4158827;28;20037;-63
2023/07/22 10:03:30;;;;;;;6.47;3.38;;;22.60;99.40;;;;;;4169036;28;20036;-62
2023/07/22 10:05:38;;;;;;;6.25;2.83;;;22.70;97.90;;;;;;4148844;28;20481;-63
2023/07/22 10:07:43;;;;;;;6.00;2.70;;;22.70;98.30;;;;;;4173349;28;20040;-63
2023/07/22 10:09:46;;;;;;;3.20;2.20;;;22.70;97.80;;;;;;4168268;28;20029;-63
2023/07/22 10:11:47;;;;;;;3.95;2.38;;;22.80;98.80;;;;;;4174290;28;20412;-63
2023/07/22 10:13:48;;;;;;;2.95;2.30;;;22.80;98.70;;;;;;4162554;28;20038;-63
2023/07/22 10:15:49;;;;;;;7.70;3.35;;;22.90;99.60;;;;;;4150089;28;20038;-63
2023/07/22 10:17:51;;;;;;;3.90;2.55;;;22.90;98.10;;;;;;4167948;28;20041;-63
2023/07/22 10:19:53;;;;;;;3.83;2.70;;;23.00;97.80;;;;;;4155905;28;20096;-63
2023/07/22 10:21:54;;;;;;;3.38;2.35;;;23.10;98.80;;;;;;4157001;28;20173;-63
2023/07/22 10:23:55;;;;;;;4.72;2.80;;;23.20;98.40;;;;;;4158423;28;20485;-63
2023/07/22 10:25:57;;;;;;;4.43;2.70;;;23.20;96.60;;;;;;4159298;28;20037;-63
2023/07/22 10:27:58;;;;;;;5.53;3.27;;;23.20;96.30;;;;;;4150348;28;20026;-64
2023/07/22 10:29:59;;;;;;;3.67;2.85;;;23.20;95.80;;;;;;4159378;28;20080;-63